createdAt,value
2019-02-12T00:00:35.974Z,0.40
2019-02-12T00:03:05.465Z,0.60
2019-02-12T00:05:34.947Z,0.47
2019-02-12T00:08:04.412Z,0.50
2019-02-12T00:10:33.868Z,0.60
2019-02-12T00:13:03.353Z,0.50
2019-02-12T00:15:32.805Z,0.50
2019-02-12T00:18:02.264Z,0.80
2019-02-12T00:20:31.766Z,0.50
2019-02-12T00:23:01.238Z,0.40
2019-02-12T00:25:30.758Z,0.70
2019-02-12T00:28:00.246Z,0.50
2019-02-12T00:30:29.731Z,0.70
2019-02-12T00:32:59.222Z,0.40
2019-02-12T00:35:28.686Z,0.50
2019-02-12T00:37:58.186Z,0.40
2019-02-12T00:40:27.572Z,0.50
2019-02-12T00:42:57.031Z,0.53
2019-02-12T00:45:26.534Z,0.50
2019-02-12T00:47:56.002Z,0.53
2019-02-12T00:50:25.462Z,0.50
2019-02-12T00:52:54.964Z,0.50
2019-02-12T00:55:24.423Z,0.60
2019-02-12T00:57:53.898Z,0.50
2019-02-12T01:00:23.396Z,0.70
2019-02-12T01:02:52.854Z,0.40
2019-02-12T01:05:22.434Z,0.90
2019-02-12T01:07:51.910Z,0.63
2019-02-12T01:10:21.473Z,0.73
2019-02-12T01:12:51.067Z,1.10
2019-02-12T01:15:20.631Z,1.10
2019-02-12T01:17:50.108Z,0.70
2019-02-12T01:20:19.611Z,1.30
2019-02-12T01:22:49.074Z,1.03
2019-02-12T01:25:18.533Z,0.50
2019-02-12T01:27:48.025Z,0.80
2019-02-12T01:30:17.697Z,1.77
2019-02-12T01:32:47.159Z,0.60
2019-02-12T01:35:16.663Z,0.73
2019-02-12T01:37:46.144Z,0.70
2019-02-12T01:40:15.719Z,1.30
2019-02-12T01:42:45.212Z,0.60
2019-02-12T01:45:14.690Z,0.67
2019-02-12T01:47:44.135Z,0.80
2019-02-12T01:50:14.119Z,0.90
2019-02-12T01:52:43.590Z,0.80
2019-02-12T01:55:13.230Z,0.67
2019-02-12T01:57:42.700Z,0.93
2019-02-12T02:00:14.091Z,0.70
2019-02-12T02:02:43.554Z,1.33
2019-02-12T02:05:12.934Z,0.80
2019-02-12T02:07:42.417Z,1.27
2019-02-12T02:10:15.496Z,1.00
2019-02-12T02:12:44.987Z,1.10
2019-02-12T02:15:14.790Z,0.67
2019-02-12T02:17:44.263Z,0.80
2019-02-12T02:20:15.233Z,0.80
2019-02-12T02:22:44.732Z,0.70
2019-02-12T02:25:14.433Z,0.60
2019-02-12T02:27:43.889Z,0.70
2019-02-12T02:30:15.285Z,0.57
2019-02-12T02:32:44.853Z,0.40
2019-02-12T02:35:14.327Z,0.60
2019-02-12T02:37:43.819Z,0.60
2019-02-12T02:40:13.318Z,0.50
2019-02-12T02:42:42.682Z,0.60
2019-02-12T02:45:13.398Z,0.70
2019-02-12T02:47:42.889Z,0.60
2019-02-12T02:50:12.418Z,0.50
2019-02-12T02:52:41.900Z,0.60
2019-02-12T02:55:11.390Z,0.60
2019-02-12T02:57:40.867Z,1.07
2019-02-12T03:00:12.369Z,0.70
2019-02-12T03:02:41.822Z,0.53
2019-02-12T03:05:12.520Z,0.50
2019-02-12T03:07:41.977Z,0.63
2019-02-12T03:10:11.770Z,0.50
2019-02-12T03:12:41.255Z,0.60
2019-02-12T03:15:12.158Z,0.50
2019-02-12T03:17:41.634Z,0.50
2019-02-12T03:20:12.753Z,0.70
2019-02-12T03:22:42.212Z,0.70
2019-02-12T03:25:11.746Z,0.63
2019-02-12T03:27:41.236Z,0.60
2019-02-12T03:30:13.000Z,0.80
2019-02-12T03:32:42.642Z,0.60
2019-02-12T03:35:12.172Z,0.63
2019-02-12T03:37:41.626Z,0.60
2019-02-12T03:40:12.322Z,0.60
2019-02-12T03:42:41.785Z,0.63
2019-02-12T03:45:13.418Z,0.70
2019-02-12T03:47:42.888Z,0.63
2019-02-12T03:50:13.059Z,0.90
2019-02-12T03:52:42.562Z,1.03
2019-02-12T03:55:13.880Z,0.80
2019-02-12T03:57:43.329Z,0.60
2019-02-12T04:00:15.614Z,1.00
2019-02-12T04:03:04.876Z,0.83
2019-02-12T04:05:35.858Z,1.00
2019-02-12T04:08:05.617Z,1.30
2019-02-12T04:10:35.087Z,0.80
2019-02-12T04:13:04.528Z,0.80
2019-02-12T04:15:34.005Z,0.80
2019-02-12T04:18:03.464Z,0.73
2019-02-12T04:20:32.954Z,0.67
2019-02-12T04:23:02.422Z,1.00
2019-02-12T04:25:31.901Z,1.20
2019-02-12T04:28:01.452Z,1.53
2019-02-12T04:30:30.884Z,1.00
2019-02-12T04:33:00.272Z,0.70
2019-02-12T04:35:29.779Z,1.20
2019-02-12T04:37:59.246Z,0.93
2019-02-12T04:40:28.731Z,0.90
2019-02-12T04:42:58.237Z,1.00
2019-02-12T04:45:27.707Z,1.00
2019-02-12T04:47:57.172Z,1.10
2019-02-12T04:50:26.762Z,1.20
2019-02-12T04:52:56.327Z,1.10
2019-02-12T04:55:25.722Z,1.00
2019-02-12T04:57:55.128Z,1.10
2019-02-12T05:00:24.768Z,1.07
2019-02-12T05:02:54.307Z,1.33
2019-02-12T05:05:23.806Z,1.33
2019-02-12T05:07:53.297Z,1.13
2019-02-12T05:10:32.901Z,1.27
2019-02-12T05:13:02.362Z,1.20
2019-02-12T05:15:31.833Z,0.70
2019-02-12T05:18:01.347Z,1.80
2019-02-12T05:20:30.859Z,1.00
2019-02-12T05:23:02.213Z,1.27
2019-02-12T05:25:31.715Z,1.17
2019-02-12T05:28:01.159Z,1.20
2019-02-12T05:30:30.619Z,1.07
2019-02-12T05:33:00.113Z,1.40
2019-02-12T05:35:29.572Z,2.03
2019-02-12T05:37:59.049Z,1.37
2019-02-12T05:40:28.532Z,1.70
2019-02-12T05:42:58.024Z,1.10
2019-02-12T05:45:27.477Z,1.20
2019-02-12T05:47:56.959Z,1.37
2019-02-12T05:50:26.416Z,1.73
2019-02-12T05:52:55.909Z,1.17
2019-02-12T05:55:25.382Z,1.10
2019-02-12T05:57:54.839Z,0.90
2019-02-12T06:00:25.900Z,0.80
2019-02-12T06:02:55.360Z,0.73
2019-02-12T06:05:30.084Z,1.00
2019-02-12T06:07:59.658Z,1.60
2019-02-12T06:10:29.207Z,1.00
2019-02-12T06:12:58.691Z,1.00
2019-02-12T06:15:28.174Z,1.33
2019-02-12T06:17:57.619Z,1.20
2019-02-12T06:20:27.562Z,1.10
2019-02-12T06:23:03.390Z,1.10
2019-02-12T06:25:28.327Z,0.90
2019-02-12T06:27:57.828Z,0.70
2019-02-12T06:30:27.283Z,1.03
2019-02-12T06:32:56.784Z,1.30
2019-02-12T06:35:26.333Z,1.20
2019-02-12T06:37:55.832Z,1.03
2019-02-12T06:40:25.290Z,0.80
2019-02-12T06:42:54.786Z,1.47
2019-02-12T06:45:24.350Z,1.03
2019-02-12T06:47:53.840Z,1.00
2019-02-12T06:50:23.713Z,0.70
2019-02-12T06:52:53.186Z,0.97
2019-02-12T06:55:22.800Z,0.77
2019-02-12T06:57:52.266Z,0.80
2019-02-12T07:00:21.742Z,1.40
2019-02-12T07:03:12.112Z,0.70
2019-02-12T07:05:48.775Z,1.37
2019-02-12T07:08:40.827Z,1.07
2019-02-12T07:12:06.477Z,1.07
2019-02-12T07:14:49.550Z,0.80
2019-02-12T07:17:40.302Z,0.70
2019-02-12T07:20:43.250Z,0.80
2019-02-12T07:23:29.324Z,0.80
2019-02-12T07:26:36.849Z,0.60
2019-02-12T07:29:13.823Z,0.87
2019-02-12T07:32:19.293Z,1.90
2019-02-12T07:35:02.622Z,0.80
2019-02-12T07:37:48.709Z,0.80
2019-02-12T07:40:51.503Z,0.90
2019-02-12T07:43:50.790Z,0.77
2019-02-12T07:46:50.515Z,0.60
2019-02-12T07:49:41.876Z,0.70
2019-02-12T07:52:37.306Z,0.80
2019-02-12T07:55:29.031Z,0.53
2019-02-12T07:58:35.297Z,1.47
2019-02-12T08:01:36.436Z,0.93
2019-02-12T08:04:40.124Z,0.70
2019-02-12T08:07:31.950Z,0.73
2019-02-12T08:10:21.345Z,0.67
2019-02-12T08:13:21.155Z,1.30
2019-02-12T08:16:10.017Z,1.23
2019-02-12T08:19:07.739Z,1.40
2019-02-12T08:21:41.871Z,1.10
2019-02-12T08:24:39.765Z,1.00
2019-02-12T08:27:47.313Z,2.20
2019-02-12T08:30:24.272Z,0.93
2019-02-12T08:33:22.531Z,1.27
2019-02-12T08:35:59.593Z,1.10
2019-02-12T08:38:48.911Z,1.90
2019-02-12T08:41:47.237Z,1.63
2019-02-12T08:44:36.271Z,1.47
2019-02-12T08:47:49.699Z,0.80
2019-02-12T08:50:32.021Z,1.10
2019-02-12T08:53:20.441Z,0.73
2019-02-12T08:56:21.823Z,0.67
2019-02-12T08:59:14.128Z,0.70
2019-02-12T09:02:27.919Z,1.43
2019-02-12T09:05:20.509Z,1.30
2019-02-12T09:08:03.361Z,0.60
2019-02-12T09:10:43.504Z,0.60
2019-02-12T09:13:29.301Z,0.60
2019-02-12T09:16:18.062Z,0.90
2019-02-12T09:18:52.195Z,0.57
2019-02-12T09:21:46.276Z,0.80
2019-02-12T09:24:47.172Z,0.80
2019-02-12T09:27:42.020Z,0.70
2019-02-12T09:30:24.684Z,0.67
2019-02-12T09:33:04.759Z,0.60
2019-02-12T09:35:56.774Z,0.80
2019-02-12T09:39:16.701Z,1.90
2019-02-12T09:42:05.545Z,0.67
2019-02-12T09:44:42.622Z,0.57
2019-02-12T09:47:31.437Z,0.60
2019-02-12T09:50:41.926Z,0.50
2019-02-12T09:53:41.701Z,0.70
2019-02-12T09:56:43.135Z,1.50
2019-02-12T09:59:29.119Z,0.67
2019-02-12T10:02:27.592Z,0.53
2019-02-12T10:05:35.304Z,1.20
2019-02-12T10:08:43.786Z,0.53
2019-02-12T10:11:30.263Z,0.50
2019-02-12T10:14:21.658Z,0.43
2019-02-12T10:16:58.862Z,0.50
2019-02-12T10:19:56.672Z,0.63
2019-02-12T10:22:51.761Z,0.40
2019-02-12T10:25:24.067Z,0.40
2019-02-12T10:27:58.329Z,0.63
2019-02-12T10:30:58.002Z,0.67
2019-02-12T10:33:27.458Z,0.47
2019-02-12T10:35:56.954Z,0.50
2019-02-12T10:38:26.454Z,0.70
2019-02-12T10:40:56.015Z,0.50
2019-02-12T10:43:25.599Z,0.50
2019-02-12T10:45:55.078Z,0.40
2019-02-12T10:48:24.542Z,0.50
2019-02-12T10:50:54.069Z,0.43
2019-02-12T10:53:23.641Z,0.50
2019-02-12T10:55:53.240Z,0.90
2019-02-12T10:58:22.714Z,0.50
2019-02-12T11:00:52.218Z,0.70
2019-02-12T11:03:21.675Z,0.60
2019-02-12T11:05:51.152Z,0.63
2019-02-12T11:08:20.654Z,0.70
2019-02-12T11:10:50.216Z,0.70
2019-02-12T11:13:19.690Z,0.60
2019-02-12T11:15:49.217Z,0.57
2019-02-12T11:18:18.681Z,0.70
2019-02-12T11:20:48.222Z,0.83
2019-02-12T11:23:17.720Z,0.60
2019-02-12T11:25:47.200Z,1.43
2019-02-12T11:28:16.782Z,0.80
2019-02-12T11:30:46.284Z,0.83
2019-02-12T11:33:15.761Z,0.70
2019-02-12T11:35:45.326Z,0.60
2019-02-12T11:38:14.824Z,0.60
2019-02-12T11:40:44.395Z,0.50
2019-02-12T11:43:13.872Z,0.60
2019-02-12T11:45:43.372Z,0.63
2019-02-12T11:48:12.889Z,0.80
2019-02-12T11:50:42.375Z,0.63
2019-02-12T11:53:11.879Z,0.50
2019-02-12T11:55:41.344Z,0.60
2019-02-12T11:58:10.813Z,1.07
2019-02-12T12:00:41.911Z,0.40
2019-02-12T12:03:11.483Z,0.50
2019-02-12T12:05:40.956Z,0.60
2019-02-12T12:08:10.432Z,0.60
2019-02-12T12:10:39.836Z,0.80
2019-02-12T12:13:09.292Z,2.20
2019-02-12T12:15:38.787Z,0.50
2019-02-12T12:18:27.637Z,0.43
2019-02-12T12:20:57.154Z,0.40
2019-02-12T12:23:26.678Z,0.60
2019-02-12T12:25:56.197Z,0.60
2019-02-12T12:28:25.707Z,0.70
2019-02-12T12:30:55.176Z,0.73
2019-02-12T12:33:24.598Z,0.40
2019-02-12T12:35:54.069Z,1.00
2019-02-12T12:38:23.523Z,0.50
2019-02-12T12:40:53.006Z,0.63
2019-02-12T12:43:22.487Z,0.50
2019-02-12T12:45:51.950Z,0.43
2019-02-12T12:48:21.448Z,0.40
2019-02-12T12:50:50.935Z,0.60
2019-02-12T12:53:20.414Z,0.60
2019-02-12T12:55:49.877Z,0.57
2019-02-12T12:58:19.381Z,0.50
2019-02-12T13:00:48.919Z,0.50
2019-02-12T13:03:18.382Z,0.60
2019-02-12T13:05:47.849Z,0.50
2019-02-12T13:08:17.314Z,0.50
2019-02-12T13:10:46.774Z,0.87
2019-02-12T13:13:17.011Z,1.30
2019-02-12T13:15:46.659Z,0.90
2019-02-12T13:18:16.153Z,0.60
2019-02-12T13:20:45.646Z,0.50
2019-02-12T13:23:15.125Z,0.40
2019-02-12T13:25:44.508Z,0.40
2019-02-12T13:28:14.015Z,0.53
2019-02-12T13:30:43.487Z,0.53
2019-02-12T13:33:13.251Z,0.60
2019-02-12T13:35:42.748Z,0.53
2019-02-12T13:38:12.231Z,0.50
2019-02-12T13:40:41.782Z,0.60
2019-02-12T13:43:11.270Z,0.70
2019-02-12T13:45:40.771Z,0.50
2019-02-12T13:48:10.233Z,0.70
2019-02-12T13:50:39.701Z,0.50
2019-02-12T13:53:09.208Z,0.67
2019-02-12T13:55:38.641Z,0.70
2019-02-12T13:58:09.106Z,0.30
2019-02-12T14:00:38.601Z,0.30
2019-02-12T14:03:08.069Z,0.40
2019-02-12T14:05:37.556Z,0.37
2019-02-12T14:08:07.126Z,0.50
2019-02-12T14:10:36.605Z,0.70
2019-02-12T14:13:06.167Z,0.70
2019-02-12T14:15:35.666Z,0.47
2019-02-12T14:18:05.239Z,0.30
2019-02-12T14:20:34.748Z,0.50
2019-02-12T14:23:04.344Z,0.63
2019-02-12T14:25:33.861Z,0.50
2019-02-12T14:28:03.422Z,0.30
2019-02-12T14:30:33.014Z,0.60
2019-02-12T14:33:02.471Z,0.40
2019-02-12T14:35:32.169Z,0.50
2019-02-12T14:38:01.678Z,0.40
2019-02-12T14:40:32.960Z,0.40
2019-02-12T14:43:02.417Z,0.50
2019-02-12T14:45:31.896Z,1.07
2019-02-12T14:48:01.363Z,0.60
2019-02-12T14:50:30.855Z,0.80
2019-02-12T14:53:00.316Z,0.40
2019-02-12T14:55:33.897Z,0.97
2019-02-12T14:58:01.006Z,0.60
2019-02-12T15:00:30.488Z,0.70
2019-02-12T15:03:00.016Z,1.20
2019-02-12T15:05:29.506Z,0.70
2019-02-12T15:07:59.026Z,1.30
2019-02-12T15:10:28.624Z,0.50
2019-02-12T15:12:58.090Z,0.70
2019-02-12T15:15:27.585Z,0.67
2019-02-12T15:17:57.094Z,0.50
2019-02-12T15:20:26.573Z,0.60
2019-02-12T15:22:56.003Z,0.50
2019-02-12T15:25:25.617Z,0.60
2019-02-12T15:27:55.088Z,0.50
2019-02-12T15:30:24.529Z,0.47
2019-02-12T15:32:54.022Z,0.53
2019-02-12T15:35:23.481Z,1.00
2019-02-12T15:37:52.948Z,0.60
2019-02-12T15:40:22.433Z,0.60
2019-02-12T15:42:51.908Z,0.50
2019-02-12T15:45:25.639Z,0.60
2019-02-12T15:47:55.202Z,0.80
2019-02-12T15:50:24.770Z,0.60
2019-02-12T15:52:54.195Z,0.40
2019-02-12T15:55:23.661Z,0.60
2019-02-12T15:57:53.041Z,0.60
2019-02-12T16:00:22.533Z,0.50
2019-02-12T16:02:52.006Z,0.80
2019-02-12T16:05:21.398Z,1.00
2019-02-12T16:07:50.881Z,0.53
2019-02-12T16:10:21.898Z,0.60
2019-02-12T16:12:51.774Z,2.50
2019-02-12T16:15:24.840Z,1.27
2019-02-12T16:17:54.462Z,1.00
2019-02-12T16:20:23.921Z,1.13
2019-02-12T16:22:53.407Z,1.80
2019-02-12T16:25:22.881Z,0.60
2019-02-12T16:27:52.365Z,0.93
2019-02-12T16:30:24.535Z,0.90
2019-02-12T16:32:54.030Z,0.73
2019-02-12T16:35:23.506Z,1.33
2019-02-12T16:37:52.963Z,0.70
2019-02-12T16:40:23.367Z,2.00
2019-02-12T16:42:53.006Z,0.60
2019-02-12T16:45:39.234Z,0.87
2019-02-12T16:48:08.693Z,0.60
2019-02-12T16:50:38.153Z,0.60
2019-02-12T16:53:07.641Z,0.67
2019-02-12T16:55:38.583Z,0.40
2019-02-12T16:58:08.089Z,1.10
2019-02-12T17:00:37.615Z,1.00
2019-02-12T17:03:07.112Z,0.60
2019-02-12T17:05:36.675Z,0.50
2019-02-12T17:08:06.159Z,0.73
2019-02-12T17:10:54.999Z,1.03
2019-02-12T17:13:24.493Z,1.00
2019-02-12T17:15:54.056Z,0.60
2019-02-12T17:18:23.530Z,0.50
2019-02-12T17:20:53.058Z,1.00
2019-02-12T17:23:22.516Z,1.00
2019-02-12T17:25:51.972Z,0.70
2019-02-12T17:28:21.467Z,0.50
2019-02-12T17:30:50.923Z,0.40
2019-02-12T17:33:20.384Z,0.60
2019-02-12T17:35:49.917Z,0.60
2019-02-12T17:38:19.431Z,0.60
2019-02-12T17:40:48.943Z,0.60
2019-02-12T17:43:18.411Z,0.70
2019-02-12T17:45:47.885Z,1.93
2019-02-12T17:48:17.586Z,0.80
2019-02-12T17:50:47.080Z,1.17
2019-02-12T17:53:16.533Z,0.70
2019-02-12T17:55:46.378Z,0.77
2019-02-12T17:58:15.907Z,1.97
2019-02-12T18:00:46.271Z,0.90
2019-02-12T18:03:15.845Z,1.10
2019-02-12T18:05:45.404Z,0.83
2019-02-12T18:08:14.887Z,0.57
2019-02-12T18:10:44.241Z,0.63
2019-02-12T18:13:13.746Z,0.43
2019-02-12T18:15:43.214Z,0.40
2019-02-12T18:18:12.664Z,0.57
2019-02-12T18:20:42.159Z,0.50
2019-02-12T18:23:11.673Z,0.70
2019-02-12T18:25:41.167Z,1.03
2019-02-12T18:28:10.581Z,0.80
2019-02-12T18:30:40.066Z,0.60
2019-02-12T18:33:09.555Z,0.60
2019-02-12T18:35:39.011Z,0.50
2019-02-12T18:38:08.496Z,0.60
2019-02-12T18:40:37.994Z,0.47
2019-02-12T18:43:07.821Z,0.40
2019-02-12T18:45:37.334Z,0.60
2019-02-12T18:48:06.869Z,0.50
2019-02-12T18:50:36.345Z,0.70
2019-02-12T18:53:05.863Z,0.70
2019-02-12T18:55:35.294Z,0.60
2019-02-12T18:58:04.767Z,0.50
2019-02-12T19:00:34.275Z,0.60
2019-02-12T19:03:03.763Z,0.80
2019-02-12T19:05:33.330Z,0.60
2019-02-12T19:08:02.813Z,0.50
2019-02-12T19:10:32.285Z,0.50
2019-02-12T19:13:01.739Z,0.40
2019-02-12T19:15:31.469Z,0.83
2019-02-12T19:18:11.872Z,2.10
2019-02-12T19:20:41.367Z,0.70
2019-02-12T19:23:10.826Z,3.03
2019-02-12T19:25:40.300Z,0.60
2019-02-12T19:28:09.994Z,0.43
2019-02-12T19:30:39.462Z,0.43
2019-02-12T19:33:09.033Z,0.50
2019-02-12T19:35:38.521Z,0.60
2019-02-12T19:38:08.007Z,0.47
2019-02-12T19:40:37.469Z,0.50
2019-02-12T19:43:06.970Z,0.70
2019-02-12T19:45:36.433Z,2.00
2019-02-12T19:48:05.924Z,2.60
2019-02-12T19:50:35.429Z,1.43
2019-02-12T19:53:04.892Z,2.80
2019-02-12T19:55:34.353Z,1.80
2019-02-12T19:58:03.870Z,1.10
2019-02-12T20:00:33.335Z,2.07
2019-02-12T20:03:02.899Z,3.40
2019-02-12T20:05:32.404Z,6.90
2019-02-12T20:08:01.883Z,2.63
2019-02-12T20:10:31.364Z,1.40
2019-02-12T20:13:00.880Z,1.63
2019-02-12T20:15:30.350Z,1.20
2019-02-12T20:17:59.833Z,2.10
2019-02-12T20:20:29.392Z,1.00
2019-02-12T20:22:58.881Z,0.90
2019-02-12T20:25:28.341Z,1.17
2019-02-12T20:27:57.851Z,1.07
2019-02-12T20:30:27.323Z,0.90
2019-02-12T20:32:56.784Z,0.50
2019-02-12T20:35:26.277Z,1.33
2019-02-12T20:37:55.754Z,1.60
2019-02-12T20:40:25.398Z,0.80
2019-02-12T20:42:54.908Z,0.80
2019-02-12T20:45:24.391Z,1.00
2019-02-12T20:47:53.873Z,0.93
2019-02-12T20:50:23.495Z,0.93
2019-02-12T20:52:52.972Z,0.83
2019-02-12T20:55:22.466Z,0.83
2019-02-12T20:57:51.965Z,1.50
2019-02-12T21:00:25.206Z,1.30
2019-02-12T21:02:54.666Z,1.40
2019-02-12T21:05:24.285Z,2.10
2019-02-12T21:07:53.733Z,1.60
2019-02-12T21:10:24.513Z,1.23
2019-02-12T21:12:54.010Z,1.40
2019-02-12T21:15:26.434Z,0.60
2019-02-12T21:17:55.896Z,0.60
2019-02-12T21:20:25.431Z,1.20
2019-02-12T21:22:55.611Z,1.33
2019-02-12T21:25:25.277Z,1.70
2019-02-12T21:27:54.749Z,1.53
2019-02-12T21:30:27.382Z,1.67
2019-02-12T21:32:56.871Z,1.87
2019-02-12T21:35:26.481Z,2.37
2019-02-12T21:37:55.938Z,2.30
2019-02-12T21:40:27.088Z,4.37
2019-02-12T21:42:56.883Z,1.27
2019-02-12T21:45:26.542Z,1.30
2019-02-12T21:47:56.038Z,1.50
2019-02-12T21:50:25.539Z,1.80
2019-02-12T21:52:55.003Z,1.37
2019-02-12T21:55:24.497Z,1.00
2019-02-12T21:57:54.065Z,1.30
2019-02-12T22:00:23.914Z,1.13
2019-02-12T22:02:53.520Z,1.50
2019-02-12T22:05:23.064Z,1.53
2019-02-12T22:07:52.535Z,0.93
2019-02-12T22:10:25.549Z,1.20
2019-02-12T22:12:55.031Z,0.97
2019-02-12T22:15:24.559Z,1.00
2019-02-12T22:17:54.072Z,1.13
2019-02-12T22:20:24.555Z,0.90
2019-02-12T22:22:54.020Z,1.07
2019-02-12T22:25:23.512Z,1.27
2019-02-12T22:27:52.985Z,1.53
2019-02-12T22:30:24.544Z,1.20
2019-02-12T22:32:54.196Z,1.40
2019-02-12T22:35:23.728Z,1.80
2019-02-12T22:37:53.425Z,1.50
2019-02-12T22:40:24.571Z,1.30
2019-02-12T22:42:54.074Z,1.50
2019-02-12T22:45:25.363Z,2.30
2019-02-12T22:47:54.938Z,1.67
2019-02-12T22:50:24.417Z,1.73
2019-02-12T22:52:53.912Z,2.50
2019-02-12T22:55:23.382Z,2.43
2019-02-12T22:57:52.813Z,1.90
2019-02-12T23:00:39.929Z,2.23
2019-02-12T23:03:09.786Z,1.80
2019-02-12T23:05:39.261Z,2.50
2019-02-12T23:08:09.041Z,2.93
2019-02-12T23:10:38.539Z,2.00
2019-02-12T23:13:08.002Z,2.43
2019-02-12T23:15:37.502Z,2.63
2019-02-12T23:18:06.961Z,2.03
2019-02-12T23:20:36.493Z,1.90
2019-02-12T23:23:25.349Z,1.47
2019-02-12T23:25:54.812Z,2.00
2019-02-12T23:28:24.295Z,2.23
2019-02-12T23:30:53.775Z,1.90
2019-02-12T23:33:23.241Z,2.07
2019-02-12T23:35:52.692Z,1.77
2019-02-12T23:38:22.470Z,1.90
2019-02-12T23:40:51.931Z,2.60
2019-02-12T23:43:21.394Z,3.70
2019-02-12T23:45:50.887Z,1.30
2019-02-12T23:48:20.368Z,1.70
2019-02-12T23:50:49.841Z,1.57
2019-02-12T23:53:19.343Z,2.10
2019-02-12T23:55:48.811Z,2.27
2019-02-12T23:58:18.283Z,2.10
